Estación Meteorológica Peña el Pijo (Robertgarden) [ 01/30/23 14:53:19 CET ]

Fecha Hora Presion(HPa) Temp (°C) Humedad % Rocio (°C) Viento ( m/s) Direccion Lluvia 1Hora(mm) Lluvia 24H(mm) LLuvia Total(mm)
2012-Jan-29 01:01:13 1012.500 -1.2 92 -2.3         153.32
2012-Jan-29 02:01:45 1012.200 -1.5 92 -2.6         153.32
2012-Jan-29 03:01:46 1011.400 -1.5 93 -2.5         153.32
2012-Jan-29 04:01:45 1011.300 -1.9 93 -2.9         153.32
2012-Jan-29 05:01:46 1011.000 -2.4 92 -3.5         153.32
2012-Jan-29 06:01:47 1011.000 -2.9 92 -4.0         153.32
2012-Jan-29 07:01:14 1010.800 -3.2 92 -4.3         153.32
2012-Jan-29 08:01:18 1011.000 -3.1 92 -4.2         153.32
2012-Jan-29 09:01:13 1011.300 -2.6 92 -3.7         153.32
2012-Jan-29 10:01:15 1011.400 1.3 85 -1.0         153.32
2012-Jan-29 11:01:15 1011.300 3.3 71 -1.4         153.32
2012-Jan-29 12:01:14 1011.200 5.2 54 -3.4         153.32
2012-Jan-29 13:01:14 1010.400 6.4 46 -4.4         153.32
2012-Jan-29 14:01:11 1009.800 7.2 42 -4.9         153.32
2012-Jan-29 15:01:14 1009.100 6.8 38 -6.6         153.32
2012-Jan-29 16:01:12 1009.200 6.4 41 -5.9         153.32
2012-Jan-29 17:01:15 1009.400 4.3 44 -7.0         153.32
2012-Jan-29 18:01:16 1009.800 3.0 49 -6.7 2.1 N     153.32
2012-Jan-29 19:01:16 1010.200 2.2 51 -6.9         153.32
2012-Jan-29 20:01:14 1010.400 0.8 57 -6.8         153.32
2012-Jan-29 21:01:19 1010.600 0.4 59 -6.7         153.32
2012-Jan-29 22:01:14 1010.700 -0.4 63 -6.6         153.32
2012-Jan-29 23:01:17 1010.500 -0.4 62 -6.8         153.32

Temperatura Máxima:    Temperatura Mínima:-3°
Presión Máxima:1012.500 Hpa    Presión Mínima:1009.100 Hpa


Volver